createdAt,value
2022-08-03T00:01:33.582Z,101599.44
2022-08-03T00:04:00.231Z,101600.63
2022-08-03T00:06:26.700Z,101601.41
2022-08-03T00:08:53.408Z,101596.72
2022-08-03T00:11:20.295Z,101600.63
2022-08-03T00:13:47.088Z,101607.69
2022-08-03T00:16:13.649Z,101597.50
2022-08-03T00:18:40.394Z,101597.47
2022-08-03T00:21:07.299Z,101596.28
2022-08-03T00:23:52.403Z,101600.63
2022-08-03T00:26:20.911Z,101591.97
2022-08-03T00:28:47.873Z,101589.63
2022-08-03T00:31:14.605Z,101598.28
2022-08-03T00:33:58.936Z,101591.22
2022-08-03T00:36:28.299Z,101596.31
2022-08-03T00:38:55.555Z,101597.47
2022-08-03T00:41:22.215Z,101595.16
2022-08-03T00:43:48.748Z,101596.72
2022-08-03T00:46:20.633Z,101596.31
2022-08-03T00:48:52.321Z,101593.59
2022-08-03T00:51:20.732Z,101591.59
2022-08-03T00:53:47.501Z,101593.19
2022-08-03T00:56:15.364Z,101588.47
2022-08-03T00:58:43.701Z,101593.16
2022-08-03T01:01:10.580Z,101579.84
2022-08-03T01:03:37.384Z,101587.69
2022-08-03T01:06:27.205Z,101584.97
2022-08-03T01:09:11.599Z,101582.97
2022-08-03T01:12:00.485Z,101584.56
2022-08-03T01:14:34.544Z,101580.66
2022-08-03T01:17:15.478Z,101575.56
2022-08-03T01:19:54.085Z,101582.97
2022-08-03T01:22:50.155Z,101581.44
2022-08-03T01:25:40.186Z,101578.72
2022-08-03T01:28:21.906Z,101581.88
2022-08-03T01:30:50.021Z,101573.22
2022-08-03T01:33:20.854Z,101570.88
2022-08-03T01:35:52.387Z,101579.50
2022-08-03T01:38:24.824Z,101579.91
2022-08-03T01:40:54.871Z,101566.59
2022-08-03T01:44:27.622Z,101579.50
2022-08-03T01:46:15.939Z,101573.63
2022-08-03T01:48:44.495Z,101574.03
2022-08-03T01:51:11.997Z,101571.66
2022-08-03T01:53:42.906Z,101572.09
2022-08-03T01:56:10.729Z,101562.66
2022-08-03T01:58:38.514Z,101560.69
2022-08-03T02:01:06.244Z,101556.78
2022-08-03T02:03:37.337Z,101569.72
2022-08-03T02:07:00.488Z,101567.75
2022-08-03T02:08:54.744Z,101566.19
2022-08-03T02:11:21.614Z,101563.81
2022-08-03T02:13:50.556Z,101579.53
2022-08-03T02:16:19.271Z,101571.28
2022-08-03T02:18:47.949Z,101566.19
2022-08-03T02:21:55.798Z,101567.31
2022-08-03T02:24:02.722Z,101561.44
2022-08-03T02:26:30.720Z,101570.47
2022-08-03T02:29:01.974Z,101562.25
2022-08-03T02:31:30.801Z,101561.44
2022-08-03T02:34:03.286Z,101559.09
2022-08-03T02:36:32.216Z,101561.06
2022-08-03T02:39:00.871Z,101552.44
2022-08-03T02:41:41.732Z,101552.03
2022-08-03T02:44:10.968Z,101551.25
2022-08-03T02:46:45.405Z,101546.53
2022-08-03T02:49:41.185Z,101540.28
2022-08-03T02:52:02.410Z,101541.44
2022-08-03T02:54:30.716Z,101543.03
2022-08-03T02:56:58.622Z,101540.28
2022-08-03T02:59:26.426Z,101541.06
2022-08-03T03:01:55.129Z,101539.09
2022-08-03T03:04:22.561Z,101531.66
2022-08-03T03:06:54.619Z,101534.00
2022-08-03T03:09:22.491Z,101536.72
2022-08-03T03:11:50.768Z,101539.06
2022-08-03T03:14:18.459Z,101537.53
2022-08-03T03:17:02.420Z,101545.34
2022-08-03T03:19:32.489Z,101544.94
2022-08-03T03:22:02.159Z,101533.97
2022-08-03T03:24:29.965Z,101536.31
2022-08-03T03:26:58.146Z,101528.47
2022-08-03T03:29:25.454Z,101522.59
2022-08-03T03:31:52.468Z,101532.38
2022-08-03T03:34:19.453Z,101529.25
2022-08-03T03:36:46.145Z,101522.59
2022-08-03T03:39:14.287Z,101532.00
2022-08-03T03:41:43.450Z,101537.09
2022-08-03T03:44:10.305Z,101540.22
2022-08-03T03:46:38.768Z,101543.34
2022-08-03T03:49:07.180Z,101534.72
2022-08-03T03:51:33.788Z,101547.25
2022-08-03T03:54:03.025Z,101532.34
2022-08-03T03:56:29.595Z,101539.41
2022-08-03T03:58:58.689Z,101545.66
2022-08-03T04:01:25.644Z,101543.31
2022-08-03T04:03:52.180Z,101539.81
2022-08-03T04:06:37.800Z,101538.22
2022-08-03T04:09:22.899Z,101541.34
2022-08-03T04:11:52.535Z,101536.66
2022-08-03T04:14:36.247Z,101539.41
2022-08-03T04:17:07.548Z,101534.31
2022-08-03T04:19:42.268Z,101534.69
2022-08-03T04:22:16.676Z,101539.41
2022-08-03T04:24:48.509Z,101542.94
2022-08-03T04:27:27.396Z,101546.44
2022-08-03T04:29:56.943Z,101547.66
2022-08-03T04:32:28.744Z,101543.72
2022-08-03T04:34:55.921Z,101546.47
2022-08-03T04:37:43.733Z,101552.38
2022-08-03T04:40:15.011Z,101546.50
2022-08-03T04:42:44.196Z,101551.19
2022-08-03T04:45:15.346Z,101544.94
2022-08-03T04:47:42.719Z,101549.66
2022-08-03T04:50:12.925Z,101552.41
2022-08-03T04:52:40.145Z,101557.50
2022-08-03T04:55:07.208Z,101553.97
2022-08-03T04:57:33.636Z,101548.50
2022-08-03T05:00:03.196Z,101557.50
2022-08-03T05:02:31.872Z,101566.50
2022-08-03T05:04:59.064Z,101563.38
2022-08-03T05:07:25.670Z,101567.31
2022-08-03T05:10:01.413Z,101567.72
2022-08-03T05:12:32.740Z,101563.81
2022-08-03T05:15:00.007Z,101571.66
2022-08-03T05:17:26.709Z,101578.34
2022-08-03T05:19:53.151Z,101582.66
2022-08-03T05:22:20.138Z,101582.25
2022-08-03T05:24:46.849Z,101579.13
2022-08-03T05:27:19.068Z,101574.03
2022-08-03T05:29:50.245Z,101581.09
2022-08-03T05:32:18.236Z,101577.56
2022-08-03T05:34:44.972Z,101583.00
2022-08-03T05:37:11.420Z,101591.19
2022-08-03T05:39:38.418Z,101586.69
2022-08-03T05:42:04.928Z,101586.94
2022-08-03T05:44:31.803Z,101579.88
2022-08-03T05:46:59.210Z,101590.19
2022-08-03T05:49:25.684Z,101583.34
2022-08-03T05:52:00.457Z,101581.41
2022-08-03T05:54:55.619Z,101576.88
2022-08-03T05:57:24.844Z,101586.13
2022-08-03T05:59:54.581Z,101589.91
2022-08-03T06:02:25.480Z,101587.31
2022-08-03T06:04:51.881Z,101580.69
2022-08-03T06:07:18.573Z,101572.69
2022-08-03T06:10:35.078Z,101579.88
2022-08-03T06:12:31.547Z,101579.16
2022-08-03T06:14:58.018Z,101581.81
2022-08-03T06:17:24.527Z,101585.44
2022-08-03T06:19:53.819Z,101579.03
2022-08-03T06:22:20.651Z,101580.13
2022-08-03T06:24:53.479Z,101583.94
2022-08-03T06:27:30.316Z,101587.72
2022-08-03T06:30:05.083Z,101579.78
2022-08-03T06:32:31.612Z,101588.78
2022-08-03T06:34:58.035Z,101576.53
2022-08-03T06:37:24.679Z,101587.66
2022-08-03T06:39:51.240Z,101579.50
2022-08-03T06:42:18.125Z,101589.00
2022-08-03T06:44:47.087Z,101580.75
2022-08-03T06:47:13.555Z,101581.69
2022-08-03T06:50:12.619Z,101582.53
2022-08-03T06:52:38.731Z,101577.69
2022-08-03T06:55:06.350Z,101567.59
2022-08-03T06:57:33.079Z,101580.28
2022-08-03T07:00:10.362Z,101574.59
2022-08-03T07:02:40.018Z,101577.34
2022-08-03T07:05:07.750Z,101576.25
2022-08-03T07:07:34.330Z,101578.41
2022-08-03T07:10:00.939Z,101590.44
2022-08-03T07:12:30.319Z,101600.56
2022-08-03T07:15:01.308Z,101596.44
2022-08-03T07:17:34.677Z,101604.66
2022-08-03T07:20:04.165Z,101602.63
2022-08-03T07:22:30.664Z,101600.56
2022-08-03T07:24:57.264Z,101601.00
2022-08-03T07:27:27.284Z,101601.72
2022-08-03T07:30:00.029Z,101608.63
2022-08-03T07:32:28.480Z,101614.34
2022-08-03T07:35:00.304Z,101623.09
2022-08-03T07:37:27.580Z,101611.75
2022-08-03T07:39:54.131Z,101609.78
2022-08-03T07:42:20.746Z,101618.22
2022-08-03T07:44:47.154Z,101617.75
2022-08-03T07:47:22.671Z,101607.06
2022-08-03T07:49:49.849Z,101603.84
2022-08-03T07:52:34.618Z,101613.78
2022-08-03T07:55:01.020Z,101611.06
2022-08-03T07:57:27.636Z,101601.00
2022-08-03T08:00:01.845Z,101594.50
2022-08-03T08:02:29.237Z,101605.13
2022-08-03T08:04:55.636Z,101594.13
2022-08-03T08:07:22.304Z,101594.22
2022-08-03T08:09:48.685Z,101601.41
2022-08-03T08:12:16.105Z,101603.38
2022-08-03T08:14:45.850Z,101598.41
2022-08-03T08:17:12.961Z,101601.16
2022-08-03T08:19:39.364Z,101596.31
2022-08-03T08:22:18.252Z,101602.53
2022-08-03T08:24:50.412Z,101594.22
2022-08-03T08:27:18.872Z,101593.41
2022-08-03T08:29:47.974Z,101607.72
2022-08-03T08:32:21.790Z,101598.13
2022-08-03T08:34:48.344Z,101603.09
2022-08-03T08:37:15.016Z,101601.38
2022-08-03T08:39:41.440Z,101605.25
2022-08-03T08:42:08.561Z,101605.69
2022-08-03T08:44:35.040Z,101608.78
2022-08-03T08:47:03.234Z,101614.31
2022-08-03T08:49:29.927Z,101607.59
2022-08-03T08:52:01.392Z,101607.25
2022-08-03T08:54:29.744Z,101614.41
2022-08-03T08:56:57.649Z,101615.53
2022-08-03T08:59:25.004Z,101611.84
2022-08-03T09:01:51.420Z,101619.03
2022-08-03T09:04:18.160Z,101609.47
2022-08-03T09:06:58.710Z,101605.75
2022-08-03T09:10:12.343Z,101613.28
2022-08-03T09:12:39.050Z,101607.41
2022-08-03T09:15:25.248Z,101605.22
2022-08-03T09:17:53.811Z,101606.13
2022-08-03T09:20:22.268Z,101611.09
2022-08-03T09:23:19.041Z,101603.63
2022-08-03T09:26:00.061Z,101605.16
2022-08-03T09:28:58.848Z,101612.00
2022-08-03T09:31:36.278Z,101609.78
2022-08-03T09:34:05.389Z,101606.19
2022-08-03T09:36:48.524Z,101603.94
2022-08-03T09:39:19.149Z,101599.66
2022-08-03T09:42:06.525Z,101605.16
2022-08-03T09:44:37.857Z,101604.50
2022-08-03T09:47:06.133Z,101609.41
2022-08-03T09:49:32.856Z,101606.03
2022-08-03T09:52:37.929Z,101614.03
2022-08-03T09:55:02.428Z,101605.13
2022-08-03T09:57:32.176Z,101603.78
2022-08-03T10:00:16.378Z,101597.63
2022-08-03T10:02:44.583Z,101599.25
2022-08-03T10:05:19.421Z,101599.38
2022-08-03T10:07:48.348Z,101601.75
2022-08-03T10:10:30.821Z,101608.53
2022-08-03T10:13:00.226Z,101604.75
2022-08-03T10:16:21.427Z,101603.03
2022-08-03T10:18:13.832Z,101600.00
2022-08-03T10:20:51.620Z,101595.81
2022-08-03T10:23:20.073Z,101607.53
2022-08-03T10:25:49.433Z,101602.34
2022-08-03T10:28:20.066Z,101608.28
2022-08-03T10:30:50.856Z,101610.38
2022-08-03T10:33:51.464Z,101602.03
2022-08-03T10:36:07.361Z,101606.16
2022-08-03T10:38:40.449Z,101607.00
2022-08-03T10:41:08.752Z,101592.75
2022-08-03T10:43:49.209Z,101608.22
2022-08-03T10:46:18.655Z,101600.63
2022-08-03T10:48:46.390Z,101593.41
2022-08-03T10:51:13.652Z,101591.66
2022-08-03T10:53:54.884Z,101583.81
2022-08-03T10:56:52.622Z,101588.16
2022-08-03T10:59:39.731Z,101583.31
2022-08-03T11:02:09.859Z,101585.38
2022-08-03T11:04:36.381Z,101583.19
2022-08-03T11:07:22.471Z,101588.50
2022-08-03T11:09:54.685Z,101573.09
2022-08-03T11:12:29.993Z,101571.28
2022-08-03T11:15:01.008Z,101572.94
2022-08-03T11:17:27.831Z,101579.69
2022-08-03T11:19:56.774Z,101571.19
2022-08-03T11:22:25.683Z,101576.03
2022-08-03T11:24:54.317Z,101578.19
2022-08-03T11:27:23.323Z,101576.56
2022-08-03T11:30:18.774Z,101574.47
2022-08-03T11:32:48.472Z,101577.38
2022-08-03T11:35:19.833Z,101568.28
2022-08-03T11:38:03.425Z,101573.66
2022-08-03T11:40:49.287Z,101573.09
2022-08-03T11:43:31.667Z,101567.13
2022-08-03T11:46:28.546Z,101569.59
2022-08-03T11:49:09.986Z,101566.66
2022-08-03T11:51:38.030Z,101571.63
2022-08-03T11:54:06.477Z,101570.66
2022-08-03T11:56:50.219Z,101573.56
2022-08-03T11:59:21.881Z,101565.41
2022-08-03T12:01:49.032Z,101561.97
2022-08-03T12:04:16.357Z,101564.59
2022-08-03T12:06:58.773Z,101560.97
2022-08-03T12:09:25.175Z,101569.03
2022-08-03T12:11:56.229Z,101556.53
2022-08-03T12:14:48.748Z,101575.19
2022-08-03T12:17:14.907Z,101564.66
2022-08-03T12:19:45.408Z,101555.66
2022-08-03T12:22:12.097Z,101556.38
2022-08-03T12:24:47.481Z,101554.16
2022-08-03T12:27:24.492Z,101559.84
2022-08-03T12:29:58.143Z,101562.22
2022-08-03T12:32:26.497Z,101565.25
2022-08-03T12:34:53.327Z,101558.72
2022-08-03T12:37:22.938Z,101563.28
2022-08-03T12:40:03.577Z,101563.38
2022-08-03T12:42:39.246Z,101564.22
2022-08-03T12:45:22.444Z,101557.84
2022-08-03T12:47:53.932Z,101559.38
2022-08-03T12:50:27.117Z,101555.34
2022-08-03T12:52:54.405Z,101560.13
2022-08-03T12:55:22.451Z,101561.94
2022-08-03T12:57:49.577Z,101559.56
2022-08-03T13:00:21.514Z,101559.84
2022-08-03T13:03:38.650Z,101572.44
2022-08-03T13:05:52.643Z,101553.44
2022-08-03T13:08:24.472Z,101558.19
2022-08-03T13:10:53.816Z,101559.19
2022-08-03T13:13:37.972Z,101551.31
2022-08-03T13:16:04.576Z,101556.72
2022-08-03T13:18:31.166Z,101558.25
2022-08-03T13:20:57.572Z,101541.13
2022-08-03T13:23:24.169Z,101557.06
2022-08-03T13:25:55.186Z,101561.06
2022-08-03T13:28:23.023Z,101548.97
2022-08-03T13:30:49.699Z,101554.50
2022-08-03T13:33:16.113Z,101553.25
2022-08-03T13:35:42.617Z,101563.88
2022-08-03T13:38:09.242Z,101555.09
2022-08-03T13:40:42.294Z,101561.47
2022-08-03T13:43:09.093Z,101550.53
2022-08-03T13:45:36.227Z,101553.34
2022-08-03T13:48:02.744Z,101551.63
2022-08-03T13:50:30.168Z,101555.81
2022-08-03T13:52:57.910Z,101554.31
2022-08-03T13:55:25.075Z,101551.88
2022-08-03T13:58:11.474Z,101555.31
2022-08-03T14:00:39.697Z,101551.38
2022-08-03T14:03:13.164Z,101543.69
2022-08-03T14:05:42.390Z,101556.03
2022-08-03T14:08:09.578Z,101535.03
2022-08-03T14:10:38.352Z,101543.59
2022-08-03T14:13:05.766Z,101551.88
2022-08-03T14:15:37.778Z,101536.25
2022-08-03T14:18:12.887Z,101535.81
2022-08-03T14:20:49.140Z,101534.16
2022-08-03T14:23:20.903Z,101541.13
2022-08-03T14:25:51.460Z,101532.88
2022-08-03T14:28:23.891Z,101521.69
2022-08-03T14:30:54.434Z,101524.38
2022-08-03T14:33:21.590Z,101518.13
2022-08-03T14:35:48.966Z,101522.56
2022-08-03T14:38:15.909Z,101531.81
2022-08-03T14:40:50.150Z,101517.09
2022-08-03T14:43:23.416Z,101515.63
2022-08-03T14:45:53.703Z,101516.19
2022-08-03T14:50:32.949Z,101520.72
2022-08-03T14:51:16.802Z,101503.47
2022-08-03T14:53:43.499Z,101511.69
2022-08-03T14:56:10.926Z,101504.59
2022-08-03T14:58:38.342Z,101510.06
2022-08-03T15:02:03.286Z,101505.06
2022-08-03T15:03:51.499Z,101497.22
2022-08-03T15:06:18.005Z,101495.59
2022-08-03T15:08:55.501Z,101498.34
2022-08-03T15:11:30.897Z,101493.69
2022-08-03T15:13:57.391Z,101495.81
2022-08-03T15:16:23.850Z,101497.16
2022-08-03T15:18:56.688Z,101500.69
2022-08-03T15:21:46.559Z,101497.69
2022-08-03T15:24:09.643Z,101496.81
2022-08-03T15:26:41.055Z,101494.72
2022-08-03T15:29:08.317Z,101495.22
2022-08-03T15:31:34.845Z,101489.41
2022-08-03T15:34:01.311Z,101483.09
2022-08-03T15:36:27.773Z,101497.81
2022-08-03T15:38:54.238Z,101490.78
2022-08-03T15:41:20.739Z,101498.97
2022-08-03T15:43:47.734Z,101483.31
2022-08-03T15:46:30.283Z,101489.22
2022-08-03T15:48:57.085Z,101477.41
2022-08-03T15:51:23.620Z,101487.63
2022-08-03T15:53:50.189Z,101495.03
2022-08-03T15:56:18.713Z,101491.22
2022-08-03T15:59:04.665Z,101474.34
2022-08-03T16:01:32.875Z,101477.69
2022-08-03T16:03:59.581Z,101476.81
2022-08-03T16:06:29.918Z,101474.78
2022-08-03T16:09:04.865Z,101478.06
2022-08-03T16:11:31.757Z,101471.31
2022-08-03T16:14:13.797Z,101468.09
2022-08-03T16:16:45.297Z,101481.09
2022-08-03T16:19:13.161Z,101471.81
2022-08-03T16:21:47.339Z,101470.34
2022-08-03T16:24:17.449Z,101465.63
2022-08-03T16:26:46.614Z,101468.31
2022-08-03T16:29:22.420Z,101464.03
2022-08-03T16:31:50.891Z,101457.09
2022-08-03T16:34:17.848Z,101457.25
2022-08-03T16:36:45.578Z,101458.28
2022-08-03T16:39:12.035Z,101453.38
2022-08-03T16:41:54.155Z,101449.13
2022-08-03T16:44:25.656Z,101446.44
2022-08-03T16:46:53.669Z,101448.25
2022-08-03T16:49:55.468Z,101452.81
2022-08-03T16:52:07.176Z,101448.50
2022-08-03T16:54:33.937Z,101453.19
2022-08-03T16:57:01.274Z,101451.72
2022-08-03T16:59:36.164Z,101445.13
2022-08-03T17:02:09.924Z,101464.72
2022-08-03T17:04:37.020Z,101451.78
2022-08-03T17:07:07.763Z,101451.47
2022-08-03T17:09:38.270Z,101451.28
2022-08-03T17:12:10.889Z,101450.97
2022-08-03T17:14:38.080Z,101454.09
2022-08-03T17:17:08.548Z,101444.75
2022-08-03T17:19:47.261Z,101445.50
2022-08-03T17:22:18.439Z,101450.28
2022-08-03T17:24:52.703Z,101450.50
2022-08-03T17:28:49.246Z,101452.59
2022-08-03T17:30:14.840Z,101450.56
2022-08-03T17:32:56.538Z,101454.38
2022-08-03T17:35:36.431Z,101454.66
2022-08-03T17:38:05.872Z,101448.25
2022-08-03T17:40:33.296Z,101448.41
2022-08-03T17:44:14.887Z,101453.72
2022-08-03T17:45:52.767Z,101459.88
2022-08-03T17:48:21.441Z,101455.06
2022-08-03T17:50:58.652Z,101463.69
2022-08-03T17:53:31.201Z,101458.56
2022-08-03T17:56:40.696Z,101458.00
2022-08-03T17:59:50.738Z,101463.25
2022-08-03T18:02:51.936Z,101463.19
2022-08-03T18:05:21.813Z,101462.50
2022-08-03T18:08:00.913Z,101463.66
2022-08-03T18:10:35.112Z,101468.13
2022-08-03T18:13:10.950Z,101469.00
2022-08-03T18:15:42.695Z,101461.50
2022-08-03T18:18:11.621Z,101468.47
2022-08-03T18:20:41.568Z,101462.38
2022-08-03T18:23:10.876Z,101461.22
2022-08-03T18:25:56.241Z,101452.16
2022-08-03T18:28:28.887Z,101453.69
2022-08-03T18:30:57.652Z,101458.78
2022-08-03T18:34:17.446Z,101459.53
2022-08-03T18:36:29.433Z,101455.44
2022-08-03T18:38:58.366Z,101456.94
2022-08-03T18:41:32.818Z,101459.03
2022-08-03T18:44:06.825Z,101459.56
2022-08-03T18:46:35.641Z,101460.91
2022-08-03T18:49:16.905Z,101457.44
2022-08-03T18:51:46.387Z,101465.09
2022-08-03T18:54:45.555Z,101458.97
2022-08-03T18:57:22.113Z,101456.44
2022-08-03T19:00:05.920Z,101462.84
2022-08-03T19:02:49.304Z,101470.19
2022-08-03T19:05:22.110Z,101469.13
2022-08-03T19:07:58.373Z,101460.16
2022-08-03T19:10:31.142Z,101463.41
2022-08-03T19:13:36.122Z,101460.00
2022-08-03T19:16:41.968Z,101468.50
2022-08-03T19:19:21.303Z,101472.84
2022-08-03T19:21:51.526Z,101480.41
2022-08-03T19:24:22.300Z,101474.63
2022-08-03T19:26:55.927Z,101473.06
2022-08-03T19:29:23.972Z,101475.84
2022-08-03T19:32:14.961Z,101475.97
2022-08-03T19:34:42.868Z,101485.97
2022-08-03T19:37:15.419Z,101484.78
2022-08-03T19:39:43.200Z,101486.84
2022-08-03T19:42:20.486Z,101489.25
2022-08-03T19:45:13.883Z,101494.19
2022-08-03T19:47:47.443Z,101490.91
2022-08-03T19:50:18.540Z,101489.41
2022-08-03T19:52:47.834Z,101491.59
2022-08-03T19:55:17.857Z,101488.25
2022-08-03T19:57:49.304Z,101488.84
2022-08-03T20:00:19.809Z,101479.53
2022-08-03T20:02:47.239Z,101485.22
2022-08-03T20:05:18.361Z,101485.91
2022-08-03T20:07:47.808Z,101487.38
2022-08-03T20:10:16.511Z,101491.28
2022-08-03T20:12:44.730Z,101475.28
2022-08-03T20:15:11.648Z,101474.16
2022-08-03T20:17:56.854Z,101467.53
2022-08-03T20:20:29.440Z,101471.31
2022-08-03T20:22:58.244Z,101470.31
2022-08-03T20:25:38.919Z,101473.31
2022-08-03T20:28:14.137Z,101468.44
2022-08-03T20:30:46.377Z,101477.00
2022-08-03T20:33:18.278Z,101469.66
2022-08-03T20:35:49.023Z,101470.66
2022-08-03T20:38:19.569Z,101468.41
2022-08-03T20:40:48.097Z,101469.53
2022-08-03T20:43:15.846Z,101465.84
2022-08-03T20:45:59.480Z,101475.38
2022-08-03T20:48:29.026Z,101468.94
2022-08-03T20:50:56.672Z,101467.56
2022-08-03T20:53:57.381Z,101460.25
2022-08-03T20:56:10.046Z,101475.00
2022-08-03T20:58:36.977Z,101460.69
2022-08-03T21:01:08.177Z,101471.06
2022-08-03T21:03:41.059Z,101472.13
2022-08-03T21:06:27.791Z,101463.56
2022-08-03T21:09:04.243Z,101477.50
2022-08-03T21:11:41.757Z,101459.78
2022-08-03T21:14:33.216Z,101474.06
2022-08-03T21:17:09.400Z,101464.38
2022-08-03T21:19:52.157Z,101457.81
2022-08-03T21:22:22.790Z,101457.22
2022-08-03T21:24:54.122Z,101453.38
2022-08-03T21:27:24.080Z,101447.25
2022-08-03T21:29:53.288Z,101446.19
2022-08-03T21:32:32.509Z,101436.63
2022-08-03T21:34:59.757Z,101444.66
2022-08-03T21:37:26.836Z,101436.94
2022-08-03T21:39:54.868Z,101441.28
2022-08-03T21:42:23.981Z,101436.94
2022-08-03T21:44:54.036Z,101444.31
2022-08-03T21:47:24.659Z,101442.06
2022-08-03T21:50:08.523Z,101444.94
2022-08-03T21:52:44.694Z,101447.38
2022-08-03T21:55:18.359Z,101437.97
2022-08-03T21:57:52.080Z,101433.59
2022-08-03T22:00:20.361Z,101431.34
2022-08-03T22:02:56.164Z,101438.94
2022-08-03T22:05:42.878Z,101432.72
2022-08-03T22:08:14.208Z,101440.47
2022-08-03T22:10:43.557Z,101431.47
2022-08-03T22:13:11.417Z,101429.91
2022-08-03T22:15:37.852Z,101434.31
2022-08-03T22:18:05.316Z,101442.31
2022-08-03T22:20:31.848Z,101434.44
2022-08-03T22:23:02.635Z,101434.44
2022-08-03T22:25:31.558Z,101431.06
2022-08-03T22:28:00.650Z,101427.28
2022-08-03T22:30:27.353Z,101432.69
2022-08-03T22:32:56.292Z,101426.81
2022-08-03T22:35:24.952Z,101420.88
2022-08-03T22:37:55.484Z,101422.06
2022-08-03T22:40:22.116Z,101426.91
2022-08-03T22:42:50.494Z,101421.16
2022-08-03T22:45:45.832Z,101420.88
2022-08-03T22:48:08.219Z,101422.50
2022-08-03T22:50:35.056Z,101413.91
2022-08-03T22:53:01.661Z,101409.63
2022-08-03T22:55:28.306Z,101408.41
2022-08-03T22:57:56.105Z,101412.81
2022-08-03T23:00:23.597Z,101407.75
2022-08-03T23:02:51.935Z,101405.44
2022-08-03T23:06:01.115Z,101411.38
2022-08-03T23:08:14.717Z,101403.63
2022-08-03T23:10:46.657Z,101418.63
2022-08-03T23:13:16.996Z,101411.63
2022-08-03T23:15:51.672Z,101411.31
2022-08-03T23:18:22.156Z,101407.53
2022-08-03T23:20:52.706Z,101411.25
2022-08-03T23:23:20.591Z,101404.09
2022-08-03T23:25:49.379Z,101408.09
2022-08-03T23:28:16.515Z,101409.28
2022-08-03T23:30:44.615Z,101411.28
2022-08-03T23:33:15.383Z,101404.19
2022-08-03T23:36:28.211Z,101413.31
2022-08-03T23:38:45.103Z,101410.97
2022-08-03T23:41:12.633Z,101408.66
2022-08-03T23:43:51.339Z,101404.38
2022-08-03T23:46:21.096Z,101409.19
2022-08-03T23:48:47.744Z,101410.47
2022-08-03T23:51:29.599Z,101408.19
2022-08-03T23:54:22.320Z,101403.09
2022-08-03T23:56:59.920Z,101408.28
2022-08-03T23:59:41.839Z,101398.50
